Portada
METAR-TAF:

METAR-TAF

Aeropuertos :

Castres, Francia

latitud: 43-33-25N, longitud: 2-17-21E, altitud: 239 m

Observación

El informe se hizo hace 29 minutos, a las 13:00 UTC
Viento 6 kt del oeste
Temperatura 8°C
Humedad 66%
Presión 1035 hPa
Visibilidad 10 km o más
sin nubes por debajo de 1500 m y sin presencia de cumulonimbus.

METAR: LFCK 031300Z AUTO 28006KT CAVOK 08/02 Q1035 NOSIG

Hora: 14:29 (13:29 UTC)

Pronóstico

El informe se hizo hace 2 horas y 29 minutos, a las 11:00 UTC
Pronóstico válido del 03 a las 12 UTC al 03 a las 21 UTC
Viento 4 kt del oeste-noroeste
Visibilidad 10 km o más
sin nubes por debajo de 1500 m y sin presencia de cumulonimbus.
Evolucionando progresivamente
del 03 a las 19 UTC al 03 a las 21 UTC
Visibilidad: 4000 m
neblina

TAF: LFCK 031100Z 0312/0321 30004KT CAVOK BECMG 0319/0321 4000 BR

Observaciones y pronósticos meteorológicos de más de 4000 aeropuertos (mensajes METAR y TAF).

Los puntos amarillos y rojos representan las estaciones disponibles.

Ponga el ratón en el punto deseado para ver el nombre de la estación.

Haga clic para ver las observaciones y los pronósticos meteorológicos.

Para cambiar el mapa : haga clic en los botones verdes con una cruz de color negro para hacer un zoom, en el botón verde con un guión para alejar o en las flechas verdes para mapas adyacentes.


METAR-TAF: